Ana Sayfa
METAR-TAF:

METAR-TAF

Havaalanları :

Gifu, Japonya

Enlem: 35-23N, Boylam: 136-52E, yükseklik: 39 m

Güncel hava durumu gözlemi

Rapor saat 04:17 UTC de 4 saat ve 20 dakika önce yapıldı.
Rüzgar değişken yönden 2 kt
Sıcaklık 29°C
Nem 62%
Basınç 1009 hPa
Görüş mesafesi 10 km veya daha fazla
3000 ft yükseklikte az bulutlu
12000 ft yükseklikte parçalı çok bulutlu
15000 ft yükseklikte çok bulutlu

METAR: RJNG 250417Z VRB02KT 9999 FEW030 BKN120 OVC150 29/21 Q1009 RMK 2CU030 5AC120 8AS150 A2981

Saat: 17:37 (08:37 UTC)


TAF: eksik

4.000'den fazla havaalanı için hava durumu gözlemleri ve tahminleri (METAR ve TAF raporları).

Kullanılabilir istasyonlar harita üzerinde sarı ve kırmızı noktalarla gösterilir.

İstasyonun adını görmek için fareyi noktanın üzerinde gezdirin.

Sonrasında hava gözlem ve tahminlerini görmek için tıklayın.

Haritayı değiştirmek için: yaklaştırmak için siyah artı işaretli yeşil düğmeye ve uzaklaştırmak için de eksi işaretli düğmeye hızla tıklayın; bitişik haritalar için yeşil okları kullanın.


METAR-TAF: